sensor_id;sensor_type;location;lat;lon;timestamp;P1;durP1;ratioP1;P2;durP2;ratioP2
18136;SDS011;9194;42.632;23.298;2022-08-01T00:03:14;2.45;;;1.90;;
18136;SDS011;9194;42.632;23.298;2022-08-01T00:08:15;2.55;;;1.77;;
18136;SDS011;9194;42.632;23.298;2022-08-01T00:13:16;1.60;;;1.60;;
18136;SDS011;9194;42.632;23.298;2022-08-01T00:18:17;2.92;;;1.58;;
18136;SDS011;9194;42.632;23.298;2022-08-01T00:23:19;1.85;;;1.73;;
18136;SDS011;9194;42.632;23.298;2022-08-01T00:28:20;1.85;;;1.60;;
18136;SDS011;9194;42.632;23.298;2022-08-01T00:33:21;3.05;;;1.52;;
18136;SDS011;9194;42.632;23.298;2022-08-01T00:38:24;2.70;;;1.38;;
18136;SDS011;9194;42.632;23.298;2022-08-01T00:43:26;1.80;;;1.70;;
18136;SDS011;9194;42.632;23.298;2022-08-01T00:48:27;1.98;;;1.40;;
18136;SDS011;9194;42.632;23.298;2022-08-01T00:53:29;2.25;;;1.60;;
18136;SDS011;9194;42.632;23.298;2022-08-01T00:58:30;1.35;;;1.35;;
18136;SDS011;9194;42.632;23.298;2022-08-01T01:03:33;3.63;;;1.35;;
18136;SDS011;9194;42.632;23.298;2022-08-01T01:08:39;1.80;;;1.55;;
18136;SDS011;9194;42.632;23.298;2022-08-01T01:13:57;1.27;;;1.27;;
18136;SDS011;9194;42.632;23.298;2022-08-01T01:19:05;1.98;;;1.60;;
18136;SDS011;9194;42.632;23.298;2022-08-01T01:24:28;2.78;;;1.20;;
18136;SDS011;9194;42.632;23.298;2022-08-01T01:29:44;1.20;;;1.20;;
18136;SDS011;9194;42.632;23.298;2022-08-01T01:34:49;2.80;;;1.38;;
18136;SDS011;9194;42.632;23.298;2022-08-01T01:39:53;1.30;;;1.20;;
18136;SDS011;9194;42.632;23.298;2022-08-01T01:44:56;5.00;;;1.70;;
18136;SDS011;9194;42.632;23.298;2022-08-01T01:49:59;4.00;;;1.33;;
18136;SDS011;9194;42.632;23.298;2022-08-01T01:55:04;1.77;;;1.60;;
18136;SDS011;9194;42.632;23.298;2022-08-01T02:00:08;1.50;;;1.50;;
18136;SDS011;9194;42.632;23.298;2022-08-01T02:05:12;1.75;;;1.65;;
18136;SDS011;9194;42.632;23.298;2022-08-01T02:10:14;2.42;;;1.33;;
18136;SDS011;9194;42.632;23.298;2022-08-01T02:15:17;1.38;;;1.30;;
18136;SDS011;9194;42.632;23.298;2022-08-01T02:20:19;6.82;;;1.80;;
18136;SDS011;9194;42.632;23.298;2022-08-01T02:35:40;2.33;;;1.50;;
18136;SDS011;9194;42.632;23.298;2022-08-01T02:40:43;7.88;;;1.50;;
18136;SDS011;9194;42.632;23.298;2022-08-01T02:45:49;1.80;;;1.65;;
18136;SDS011;9194;42.632;23.298;2022-08-01T02:50:59;1.40;;;1.30;;
18136;SDS011;9194;42.632;23.298;2022-08-01T02:56:03;3.03;;;1.48;;
18136;SDS011;9194;42.632;23.298;2022-08-01T03:01:06;2.10;;;1.90;;
18136;SDS011;9194;42.632;23.298;2022-08-01T03:06:09;3.03;;;1.83;;
18136;SDS011;9194;42.632;23.298;2022-08-01T03:11:11;4.90;;;1.70;;
18136;SDS011;9194;42.632;23.298;2022-08-01T03:16:14;5.22;;;1.48;;
18136;SDS011;9194;42.632;23.298;2022-08-01T03:21:16;6.60;;;1.88;;
18136;SDS011;9194;42.632;23.298;2022-08-01T03:26:20;2.00;;;1.65;;
18136;SDS011;9194;42.632;23.298;2022-08-01T03:31:22;8.45;;;2.10;;
18136;SDS011;9194;42.632;23.298;2022-08-01T03:36:28;4.20;;;1.70;;
18136;SDS011;9194;42.632;23.298;2022-08-01T03:41:37;1.95;;;1.70;;
18136;SDS011;9194;42.632;23.298;2022-08-01T03:52:09;3.65;;;2.42;;
18136;SDS011;9194;42.632;23.298;2022-08-01T03:57:12;3.10;;;2.08;;
18136;SDS011;9194;42.632;23.298;2022-08-01T04:02:14;2.00;;;1.80;;
18136;SDS011;9194;42.632;23.298;2022-08-01T04:07:26;1.75;;;1.65;;
18136;SDS011;9194;42.632;23.298;2022-08-01T04:12:29;2.35;;;1.92;;
18136;SDS011;9194;42.632;23.298;2022-08-01T04:17:31;6.75;;;2.22;;
18136;SDS011;9194;42.632;23.298;2022-08-01T04:22:33;4.47;;;1.90;;
18136;SDS011;9194;42.632;23.298;2022-08-01T04:27:36;2.65;;;1.98;;
18136;SDS011;9194;42.632;23.298;2022-08-01T04:32:39;4.47;;;1.75;;
18136;SDS011;9194;42.632;23.298;2022-08-01T04:37:45;2.03;;;1.92;;
18136;SDS011;9194;42.632;23.298;2022-08-01T04:42:49;1.98;;;1.88;;
18136;SDS011;9194;42.632;23.298;2022-08-01T04:47:51;2.05;;;1.95;;
18136;SDS011;9194;42.632;23.298;2022-08-01T04:58:29;2.20;;;1.98;;
18136;SDS011;9194;42.632;23.298;2022-08-01T05:03:32;3.63;;;1.70;;
18136;SDS011;9194;42.632;23.298;2022-08-01T05:08:34;2.03;;;1.70;;
18136;SDS011;9194;42.632;23.298;2022-08-01T05:13:37;2.95;;;1.90;;
18136;SDS011;9194;42.632;23.298;2022-08-01T05:18:38;2.10;;;1.88;;
18136;SDS011;9194;42.632;23.298;2022-08-01T05:23:39;2.40;;;1.98;;
18136;SDS011;9194;42.632;23.298;2022-08-01T05:28:41;2.47;;;1.88;;
18136;SDS011;9194;42.632;23.298;2022-08-01T05:33:42;7.03;;;1.80;;
18136;SDS011;9194;42.632;23.298;2022-08-01T05:38:44;1.75;;;1.65;;
18136;SDS011;9194;42.632;23.298;2022-08-01T05:43:45;1.92;;;1.83;;
18136;SDS011;9194;42.632;23.298;2022-08-01T05:48:47;2.35;;;1.67;;
18136;SDS011;9194;42.632;23.298;2022-08-01T05:53:48;2.08;;;1.98;;
18136;SDS011;9194;42.632;23.298;2022-08-01T05:58:49;2.53;;;1.80;;
18136;SDS011;9194;42.632;23.298;2022-08-01T06:03:51;2.40;;;1.98;;
18136;SDS011;9194;42.632;23.298;2022-08-01T06:08:54;5.65;;;2.42;;
18136;SDS011;9194;42.632;23.298;2022-08-01T06:13:56;4.97;;;2.05;;
18136;SDS011;9194;42.632;23.298;2022-08-01T06:18:57;2.00;;;1.90;;
18136;SDS011;9194;42.632;23.298;2022-08-01T06:23:58;2.50;;;2.30;;
18136;SDS011;9194;42.632;23.298;2022-08-01T06:29:00;2.80;;;1.85;;
18136;SDS011;9194;42.632;23.298;2022-08-01T06:34:01;2.85;;;2.08;;
18136;SDS011;9194;42.632;23.298;2022-08-01T06:39:02;2.78;;;1.92;;
18136;SDS011;9194;42.632;23.298;2022-08-01T06:44:04;4.05;;;2.00;;
18136;SDS011;9194;42.632;23.298;2022-08-01T06:49:07;2.28;;;2.08;;
18136;SDS011;9194;42.632;23.298;2022-08-01T06:54:09;4.18;;;1.90;;
18136;SDS011;9194;42.632;23.298;2022-08-01T06:59:10;5.90;;;2.03;;
18136;SDS011;9194;42.632;23.298;2022-08-01T07:04:11;2.65;;;1.90;;
18136;SDS011;9194;42.632;23.298;2022-08-01T07:09:12;5.78;;;2.28;;
18136;SDS011;9194;42.632;23.298;2022-08-01T07:14:14;4.10;;;2.08;;
18136;SDS011;9194;42.632;23.298;2022-08-01T07:19:15;2.33;;;2.00;;
18136;SDS011;9194;42.632;23.298;2022-08-01T07:24:17;2.25;;;2.08;;
18136;SDS011;9194;42.632;23.298;2022-08-01T07:29:19;5.78;;;2.00;;
18136;SDS011;9194;42.632;23.298;2022-08-01T07:34:21;5.70;;;2.33;;
18136;SDS011;9194;42.632;23.298;2022-08-01T07:39:23;3.20;;;2.35;;
18136;SDS011;9194;42.632;23.298;2022-08-01T07:44:25;3.13;;;1.98;;
18136;SDS011;9194;42.632;23.298;2022-08-01T07:49:26;4.15;;;2.30;;
18136;SDS011;9194;42.632;23.298;2022-08-01T07:54:27;3.58;;;2.10;;
18136;SDS011;9194;42.632;23.298;2022-08-01T07:59:29;4.55;;;2.10;;
18136;SDS011;9194;42.632;23.298;2022-08-01T08:04:31;1.92;;;1.77;;
18136;SDS011;9194;42.632;23.298;2022-08-01T08:09:32;5.25;;;1.80;;
18136;SDS011;9194;42.632;23.298;2022-08-01T08:14:33;4.40;;;2.38;;
18136;SDS011;9194;42.632;23.298;2022-08-01T08:19:35;3.15;;;2.05;;
18136;SDS011;9194;42.632;23.298;2022-08-01T08:24:38;1.95;;;1.85;;
18136;SDS011;9194;42.632;23.298;2022-08-01T08:29:40;6.03;;;1.77;;
18136;SDS011;9194;42.632;23.298;2022-08-01T08:34:41;3.67;;;1.90;;
18136;SDS011;9194;42.632;23.298;2022-08-01T08:39:43;2.22;;;2.08;;
18136;SDS011;9194;42.632;23.298;2022-08-01T08:44:44;5.28;;;1.98;;
18136;SDS011;9194;42.632;23.298;2022-08-01T08:49:46;2.00;;;1.90;;
18136;SDS011;9194;42.632;23.298;2022-08-01T08:54:50;1.55;;;1.45;;
18136;SDS011;9194;42.632;23.298;2022-08-01T08:59:52;2.05;;;1.95;;
18136;SDS011;9194;42.632;23.298;2022-08-01T09:04:55;4.13;;;1.70;;
18136;SDS011;9194;42.632;23.298;2022-08-01T09:09:57;3.15;;;1.70;;
18136;SDS011;9194;42.632;23.298;2022-08-01T09:14:58;1.83;;;1.73;;
18136;SDS011;9194;42.632;23.298;2022-08-01T09:20:00;3.25;;;2.17;;
18136;SDS011;9194;42.632;23.298;2022-08-01T09:30:13;2.10;;;2.00;;
18136;SDS011;9194;42.632;23.298;2022-08-01T09:35:22;4.32;;;1.95;;
18136;SDS011;9194;42.632;23.298;2022-08-01T09:40:38;1.80;;;1.70;;
18136;SDS011;9194;42.632;23.298;2022-08-01T09:45:45;4.03;;;2.20;;
18136;SDS011;9194;42.632;23.298;2022-08-01T09:50:47;3.28;;;2.28;;
18136;SDS011;9194;42.632;23.298;2022-08-01T09:55:50;6.68;;;2.38;;
18136;SDS011;9194;42.632;23.298;2022-08-01T10:00:59;6.82;;;2.33;;
18136;SDS011;9194;42.632;23.298;2022-08-01T10:06:10;1.60;;;1.50;;
18136;SDS011;9194;42.632;23.298;2022-08-01T10:11:20;4.60;;;2.10;;
18136;SDS011;9194;42.632;23.298;2022-08-01T10:16:22;3.65;;;1.67;;
18136;SDS011;9194;42.632;23.298;2022-08-01T10:21:26;3.53;;;2.17;;
18136;SDS011;9194;42.632;23.298;2022-08-01T10:26:28;2.25;;;2.15;;
18136;SDS011;9194;42.632;23.298;2022-08-01T10:31:32;2.25;;;1.90;;
18136;SDS011;9194;42.632;23.298;2022-08-01T10:36:34;4.03;;;1.92;;
18136;SDS011;9194;42.632;23.298;2022-08-01T10:41:39;1.55;;;1.45;;
18136;SDS011;9194;42.632;23.298;2022-08-01T10:46:50;1.90;;;1.80;;
18136;SDS011;9194;42.632;23.298;2022-08-01T10:51:55;2.38;;;2.10;;
18136;SDS011;9194;42.632;23.298;2022-08-01T10:56:57;2.47;;;1.92;;
18136;SDS011;9194;42.632;23.298;2022-08-01T11:02:01;3.40;;;1.70;;
18136;SDS011;9194;42.632;23.298;2022-08-01T11:07:06;1.70;;;1.60;;
18136;SDS011;9194;42.632;23.298;2022-08-01T11:12:12;3.85;;;1.90;;
18136;SDS011;9194;42.632;23.298;2022-08-01T11:17:35;3.03;;;1.80;;
18136;SDS011;9194;42.632;23.298;2022-08-01T11:33:15;1.65;;;1.58;;
18136;SDS011;9194;42.632;23.298;2022-08-01T11:38:22;3.17;;;1.70;;
18136;SDS011;9194;42.632;23.298;2022-08-01T11:49:29;4.32;;;1.85;;
18136;SDS011;9194;42.632;23.298;2022-08-01T12:05:32;2.05;;;1.95;;
18136;SDS011;9194;42.632;23.298;2022-08-01T12:10:48;2.20;;;2.05;;
18136;SDS011;9194;42.632;23.298;2022-08-01T12:15:51;7.05;;;2.17;;
18136;SDS011;9194;42.632;23.298;2022-08-01T12:20:52;2.17;;;2.03;;
18136;SDS011;9194;42.632;23.298;2022-08-01T12:26:05;2.13;;;1.95;;
18136;SDS011;9194;42.632;23.298;2022-08-01T12:31:07;1.77;;;1.67;;
18136;SDS011;9194;42.632;23.298;2022-08-01T12:36:08;6.13;;;2.10;;
18136;SDS011;9194;42.632;23.298;2022-08-01T12:41:10;3.85;;;1.95;;
18136;SDS011;9194;42.632;23.298;2022-08-01T12:46:11;2.30;;;2.20;;
18136;SDS011;9194;42.632;23.298;2022-08-01T12:51:16;3.78;;;2.22;;
18136;SDS011;9194;42.632;23.298;2022-08-01T12:56:18;2.45;;;2.25;;
18136;SDS011;9194;42.632;23.298;2022-08-01T13:01:33;2.20;;;2.10;;
18136;SDS011;9194;42.632;23.298;2022-08-01T13:06:34;1.90;;;1.80;;
18136;SDS011;9194;42.632;23.298;2022-08-01T13:11:36;4.00;;;1.75;;
18136;SDS011;9194;42.632;23.298;2022-08-01T13:16:46;2.13;;;2.00;;
18136;SDS011;9194;42.632;23.298;2022-08-01T13:21:55;2.22;;;2.03;;
18136;SDS011;9194;42.632;23.298;2022-08-01T13:26:58;2.63;;;2.03;;
18136;SDS011;9194;42.632;23.298;2022-08-01T13:32:22;2.38;;;1.70;;
18136;SDS011;9194;42.632;23.298;2022-08-01T13:37:23;2.17;;;2.08;;
18136;SDS011;9194;42.632;23.298;2022-08-01T13:42:40;1.85;;;1.75;;
18136;SDS011;9194;42.632;23.298;2022-08-01T13:47:42;2.00;;;1.90;;
18136;SDS011;9194;42.632;23.298;2022-08-01T13:52:44;2.15;;;1.95;;
18136;SDS011;9194;42.632;23.298;2022-08-01T13:57:45;2.85;;;1.80;;
18136;SDS011;9194;42.632;23.298;2022-08-01T14:02:47;3.03;;;1.80;;
18136;SDS011;9194;42.632;23.298;2022-08-01T14:07:48;2.10;;;1.90;;
18136;SDS011;9194;42.632;23.298;2022-08-01T14:12:49;1.92;;;1.75;;
18136;SDS011;9194;42.632;23.298;2022-08-01T14:17:50;4.00;;;2.10;;
18136;SDS011;9194;42.632;23.298;2022-08-01T14:22:52;3.10;;;2.00;;
18136;SDS011;9194;42.632;23.298;2022-08-01T14:27:54;2.03;;;1.90;;
18136;SDS011;9194;42.632;23.298;2022-08-01T14:32:55;3.90;;;2.03;;
18136;SDS011;9194;42.632;23.298;2022-08-01T14:37:57;2.10;;;2.00;;
18136;SDS011;9194;42.632;23.298;2022-08-01T14:42:59;2.05;;;1.95;;
18136;SDS011;9194;42.632;23.298;2022-08-01T14:48:01;1.80;;;1.70;;
18136;SDS011;9194;42.632;23.298;2022-08-01T14:53:03;1.85;;;1.70;;
18136;SDS011;9194;42.632;23.298;2022-08-01T14:58:04;2.03;;;1.90;;
18136;SDS011;9194;42.632;23.298;2022-08-01T15:03:05;1.70;;;1.63;;
18136;SDS011;9194;42.632;23.298;2022-08-01T15:08:07;3.03;;;1.95;;
18136;SDS011;9194;42.632;23.298;2022-08-01T15:13:08;2.55;;;2.10;;
18136;SDS011;9194;42.632;23.298;2022-08-01T15:18:10;2.97;;;1.70;;
18136;SDS011;9194;42.632;23.298;2022-08-01T15:23:16;1.70;;;1.60;;
18136;SDS011;9194;42.632;23.298;2022-08-01T15:33:47;1.65;;;1.50;;
18136;SDS011;9194;42.632;23.298;2022-08-01T15:38:48;1.98;;;1.80;;
18136;SDS011;9194;42.632;23.298;2022-08-01T15:43:49;3.35;;;1.65;;
18136;SDS011;9194;42.632;23.298;2022-08-01T15:48:51;1.50;;;1.40;;
18136;SDS011;9194;42.632;23.298;2022-08-01T15:53:52;3.38;;;1.40;;
18136;SDS011;9194;42.632;23.298;2022-08-01T15:58:53;1.80;;;1.70;;
18136;SDS011;9194;42.632;23.298;2022-08-01T16:03:55;1.60;;;1.60;;
18136;SDS011;9194;42.632;23.298;2022-08-01T16:08:57;1.70;;;1.60;;
18136;SDS011;9194;42.632;23.298;2022-08-01T16:13:59;1.45;;;1.35;;
18136;SDS011;9194;42.632;23.298;2022-08-01T16:19:00;1.42;;;1.33;;
18136;SDS011;9194;42.632;23.298;2022-08-01T16:24:01;1.40;;;1.30;;
18136;SDS011;9194;42.632;23.298;2022-08-01T16:29:03;1.30;;;1.30;;
18136;SDS011;9194;42.632;23.298;2022-08-01T16:34:05;1.67;;;1.48;;
18136;SDS011;9194;42.632;23.298;2022-08-01T16:39:06;3.13;;;1.45;;
18136;SDS011;9194;42.632;23.298;2022-08-01T16:44:08;1.38;;;1.38;;
18136;SDS011;9194;42.632;23.298;2022-08-01T16:49:10;1.60;;;1.50;;
18136;SDS011;9194;42.632;23.298;2022-08-01T16:54:12;2.92;;;1.25;;
18136;SDS011;9194;42.632;23.298;2022-08-01T16:59:14;1.40;;;1.30;;
18136;SDS011;9194;42.632;23.298;2022-08-01T17:04:20;1.50;;;1.30;;
18136;SDS011;9194;42.632;23.298;2022-08-01T17:09:21;3.38;;;1.33;;
18136;SDS011;9194;42.632;23.298;2022-08-01T17:14:23;0.90;;;0.90;;
18136;SDS011;9194;42.632;23.298;2022-08-01T17:19:24;1.55;;;1.35;;
18136;SDS011;9194;42.632;23.298;2022-08-01T17:24:28;1.20;;;1.10;;
18136;SDS011;9194;42.632;23.298;2022-08-01T17:29:30;1.50;;;1.40;;
18136;SDS011;9194;42.632;23.298;2022-08-01T17:34:31;1.23;;;1.23;;
18136;SDS011;9194;42.632;23.298;2022-08-01T17:39:34;2.25;;;1.40;;
18136;SDS011;9194;42.632;23.298;2022-08-01T17:44:35;1.33;;;1.23;;
18136;SDS011;9194;42.632;23.298;2022-08-01T17:49:36;1.70;;;1.38;;
18136;SDS011;9194;42.632;23.298;2022-08-01T17:54:38;2.03;;;1.42;;
18136;SDS011;9194;42.632;23.298;2022-08-01T17:59:40;3.75;;;1.38;;
18136;SDS011;9194;42.632;23.298;2022-08-01T18:04:43;2.47;;;1.35;;
18136;SDS011;9194;42.632;23.298;2022-08-01T18:09:44;1.40;;;1.30;;
18136;SDS011;9194;42.632;23.298;2022-08-01T18:14:46;1.52;;;1.42;;
18136;SDS011;9194;42.632;23.298;2022-08-01T18:19:47;1.88;;;1.58;;
18136;SDS011;9194;42.632;23.298;2022-08-01T18:24:51;2.00;;;1.80;;
18136;SDS011;9194;42.632;23.298;2022-08-01T18:29:52;1.63;;;1.52;;
18136;SDS011;9194;42.632;23.298;2022-08-01T18:34:54;1.65;;;1.55;;
18136;SDS011;9194;42.632;23.298;2022-08-01T18:39:55;1.67;;;1.58;;
18136;SDS011;9194;42.632;23.298;2022-08-01T18:44:56;1.63;;;1.52;;
18136;SDS011;9194;42.632;23.298;2022-08-01T18:49:58;1.60;;;1.50;;
18136;SDS011;9194;42.632;23.298;2022-08-01T18:54:59;1.48;;;1.38;;
18136;SDS011;9194;42.632;23.298;2022-08-01T19:00:00;2.90;;;1.35;;
18136;SDS011;9194;42.632;23.298;2022-08-01T19:05:02;1.60;;;1.50;;
18136;SDS011;9194;42.632;23.298;2022-08-01T19:10:03;1.75;;;1.42;;
18136;SDS011;9194;42.632;23.298;2022-08-01T19:15:05;1.67;;;1.35;;
18136;SDS011;9194;42.632;23.298;2022-08-01T19:20:07;1.98;;;1.58;;
18136;SDS011;9194;42.632;23.298;2022-08-01T19:25:09;1.27;;;1.27;;
18136;SDS011;9194;42.632;23.298;2022-08-01T19:30:10;1.90;;;1.75;;
18136;SDS011;9194;42.632;23.298;2022-08-01T19:35:12;1.67;;;1.58;;
18136;SDS011;9194;42.632;23.298;2022-08-01T19:40:16;6.75;;;1.70;;
18136;SDS011;9194;42.632;23.298;2022-08-01T19:45:20;3.50;;;1.50;;
18136;SDS011;9194;42.632;23.298;2022-08-01T19:50:22;1.83;;;1.70;;
18136;SDS011;9194;42.632;23.298;2022-08-01T19:55:31;1.52;;;1.52;;
18136;SDS011;9194;42.632;23.298;2022-08-01T20:07:05;1.85;;;1.70;;
18136;SDS011;9194;42.632;23.298;2022-08-01T20:12:06;2.08;;;1.73;;
18136;SDS011;9194;42.632;23.298;2022-08-01T20:17:14;1.83;;;1.38;;
18136;SDS011;9194;42.632;23.298;2022-08-01T20:22:17;1.70;;;1.60;;
18136;SDS011;9194;42.632;23.298;2022-08-01T20:27:19;1.95;;;1.30;;
18136;SDS011;9194;42.632;23.298;2022-08-01T20:32:29;1.30;;;1.30;;
18136;SDS011;9194;42.632;23.298;2022-08-01T20:37:33;1.77;;;1.23;;
18136;SDS011;9194;42.632;23.298;2022-08-01T20:42:39;1.80;;;1.70;;
18136;SDS011;9194;42.632;23.298;2022-08-01T20:47:41;1.60;;;1.38;;
18136;SDS011;9194;42.632;23.298;2022-08-01T20:52:46;1.70;;;1.60;;
18136;SDS011;9194;42.632;23.298;2022-08-01T20:57:48;2.42;;;1.40;;
18136;SDS011;9194;42.632;23.298;2022-08-01T21:03:01;1.40;;;1.30;;
18136;SDS011;9194;42.632;23.298;2022-08-01T21:08:22;2.45;;;1.40;;
18136;SDS011;9194;42.632;23.298;2022-08-01T21:13:36;4.35;;;1.30;;
18136;SDS011;9194;42.632;23.298;2022-08-01T21:23:58;3.15;;;1.83;;
18136;SDS011;9194;42.632;23.298;2022-08-01T21:29:05;1.40;;;1.30;;
18136;SDS011;9194;42.632;23.298;2022-08-01T21:34:07;1.80;;;1.70;;
18136;SDS011;9194;42.632;23.298;2022-08-01T21:39:09;1.85;;;1.52;;
18136;SDS011;9194;42.632;23.298;2022-08-01T21:44:11;1.20;;;1.20;;
18136;SDS011;9194;42.632;23.298;2022-08-01T21:49:14;1.35;;;1.33;;
18136;SDS011;9194;42.632;23.298;2022-08-01T21:59:41;2.38;;;1.20;;
18136;SDS011;9194;42.632;23.298;2022-08-01T22:05:05;0.88;;;0.88;;
18136;SDS011;9194;42.632;23.298;2022-08-01T22:10:08;1.02;;;0.98;;
18136;SDS011;9194;42.632;23.298;2022-08-01T22:15:14;0.80;;;0.80;;
18136;SDS011;9194;42.632;23.298;2022-08-01T22:20:21;1.00;;;0.80;;
18136;SDS011;9194;42.632;23.298;2022-08-01T22:25:24;0.65;;;0.65;;
18136;SDS011;9194;42.632;23.298;2022-08-01T22:30:25;1.08;;;0.68;;
18136;SDS011;9194;42.632;23.298;2022-08-01T22:35:26;2.30;;;1.13;;
18136;SDS011;9194;42.632;23.298;2022-08-01T22:40:28;1.00;;;0.70;;
18136;SDS011;9194;42.632;23.298;2022-08-01T22:45:38;1.10;;;1.10;;
18136;SDS011;9194;42.632;23.298;2022-08-01T22:50:52;5.28;;;1.13;;
18136;SDS011;9194;42.632;23.298;2022-08-01T22:55:58;1.98;;;1.10;;
18136;SDS011;9194;42.632;23.298;2022-08-01T23:01:02;3.45;;;1.40;;
18136;SDS011;9194;42.632;23.298;2022-08-01T23:06:11;1.25;;;1.10;;
18136;SDS011;9194;42.632;23.298;2022-08-01T23:11:20;1.77;;;1.27;;
18136;SDS011;9194;42.632;23.298;2022-08-01T23:16:23;1.48;;;1.38;;
18136;SDS011;9194;42.632;23.298;2022-08-01T23:21:26;1.75;;;1.30;;
18136;SDS011;9194;42.632;23.298;2022-08-01T23:26:28;2.08;;;1.40;;
18136;SDS011;9194;42.632;23.298;2022-08-01T23:31:30;1.15;;;1.15;;
18136;SDS011;9194;42.632;23.298;2022-08-01T23:36:31;1.35;;;1.25;;
18136;SDS011;9194;42.632;23.298;2022-08-01T23:41:33;1.52;;;1.23;;
18136;SDS011;9194;42.632;23.298;2022-08-01T23:46:34;1.50;;;1.40;;
18136;SDS011;9194;42.632;23.298;2022-08-01T23:51:36;3.20;;;1.20;;
18136;SDS011;9194;42.632;23.298;2022-08-01T23:56:37;2.95;;;1.42;;
